Time;durP1;ratioP1;P1;durP2;ratioP2;P2;SDS_P1;SDS_P2;PMS_P1;PMS_P2;Temp;Humidity;BMP_temperature;BMP_pressure;BME280_temperature;BME280_humidity;BME280_pressure;Samples;Min_cycle;Max_cycle;Signal;HPM_P1;HPM_P2
2022/09/09 00:01:36;;;;;;;16.23;8.65;;;14.80;99.90;;;;;;5055408;28;20051;-94
2022/09/09 00:04:05;;;;;;;23.25;9.60;;;14.90;99.90;;;;;;5056635;28;20040;-94
2022/09/09 00:06:42;;;;;;;12.60;8.73;;;14.80;99.90;;;;;;5055381;28;20044;-94
2022/09/09 00:09:12;;;;;;;15.13;9.30;;;14.80;99.90;;;;;;5059007;28;20062;-94
2022/09/09 00:11:53;;;;;;;15.48;8.88;;;14.70;99.90;;;;;;5059885;28;20051;-94
2022/09/09 00:14:30;;;;;;;12.77;8.93;;;14.70;99.90;;;;;;5058741;28;20047;-95
2022/09/09 00:17:01;;;;;;;20.30;9.18;;;14.60;99.90;;;;;;5059349;28;20040;-94
2022/09/09 00:19:51;;;;;;;14.95;9.00;;;14.50;99.90;;;;;;5058989;28;20052;-94
2022/09/09 00:22:19;;;;;;;14.88;9.38;;;14.50;99.90;;;;;;5058272;28;20070;-94
2022/09/09 00:24:51;;;;;;;16.92;9.10;;;14.50;99.90;;;;;;5058384;28;20048;-94
2022/09/09 00:27:29;;;;;;;18.00;9.45;;;14.40;99.90;;;;;;5057998;28;20155;-94
2022/09/09 00:30:02;;;;;;;19.13;9.05;;;14.40;99.90;;;;;;5059303;28;20066;-94
2022/09/09 00:32:31;;;;;;;14.57;8.27;;;14.40;99.90;;;;;;5056429;28;20032;-94
2022/09/09 00:35:12;;;;;;;19.05;10.20;;;14.30;99.90;;;;;;5054147;28;20083;-94
2022/09/09 00:37:40;;;;;;;16.17;9.20;;;14.30;99.90;;;;;;5057824;28;20040;-94
2022/09/09 00:40:22;;;;;;;13.27;8.57;;;14.20;99.90;;;;;;5073849;28;20058;-95
2022/09/09 00:42:54;;;;;;;12.25;8.68;;;14.20;99.90;;;;;;5061309;28;20051;-93
2022/09/09 00:45:53;;;;;;;17.52;10.23;;;14.20;99.90;;;;;;5061098;28;20104;-94
2022/09/09 00:48:27;;;;;;;18.80;10.32;;;14.20;99.90;;;;;;5061212;28;20124;-94
2022/09/09 00:50:52;;;;;;;20.67;11.82;;;14.20;99.90;;;;;;5061029;28;20052;-94
2022/09/09 00:53:23;;;;;;;17.33;10.10;;;14.20;99.90;;;;;;5058556;28;20064;-95
2022/09/09 00:56:01;;;;;;;16.20;9.98;;;14.10;99.90;;;;;;5060183;28;20040;-95
2022/09/09 00:58:27;;;;;;;18.13;10.35;;;14.10;99.90;;;;;;5059004;28;20039;-94
2022/09/09 01:01:06;;;;;;;15.15;9.70;;;14.10;99.90;;;;;;5061169;28;20090;-94
2022/09/09 01:03:39;;;;;;;19.17;9.00;;;14.10;99.90;;;;;;5060763;28;20036;-94
2022/09/09 01:06:31;;;;;;;14.20;8.88;;;14.00;99.90;;;;;;5061375;28;20052;-95
2022/09/09 01:09:15;;;;;;;17.20;8.67;;;14.00;99.90;;;;;;5059009;28;20453;-94
2022/09/09 01:12:03;;;;;;;20.15;9.85;;;14.00;99.90;;;;;;5060716;28;20044;-95
2022/09/09 01:14:34;;;;;;;18.23;8.65;;;14.00;99.90;;;;;;5060411;28;20130;-94
2022/09/09 01:17:09;;;;;;;11.85;8.07;;;14.00;99.90;;;;;;5060587;28;20043;-95
2022/09/09 01:19:42;;;;;;;16.38;8.48;;;14.00;99.90;;;;;;5059891;28;20514;-95
2022/09/09 01:22:24;;;;;;;16.60;8.07;;;14.00;99.90;;;;;;5059908;28;20044;-94
2022/09/09 01:24:54;;;;;;;14.13;8.93;;;14.00;99.90;;;;;;5060404;28;20135;-94
2022/09/09 01:27:21;;;;;;;14.38;9.07;;;13.90;99.90;;;;;;5060570;28;20040;-94
2022/09/09 01:29:47;;;;;;;13.80;8.02;;;13.90;99.90;;;;;;5060124;28;20044;-95
2022/09/09 01:32:38;;;;;;;18.38;9.70;;;13.90;99.90;;;;;;5060054;28;20147;-95
2022/09/09 01:35:10;;;;;;;15.32;9.45;;;13.90;99.90;;;;;;5060218;28;20040;-94
2022/09/09 01:37:35;;;;;;;19.52;9.75;;;13.90;99.90;;;;;;5060174;28;20570;-95
2022/09/09 01:40:01;;;;;;;14.00;8.50;;;13.90;99.90;;;;;;5059208;28;20047;-94
2022/09/09 01:42:27;;;;;;;14.27;9.15;;;13.90;99.90;;;;;;5059335;28;20090;-94
2022/09/09 01:44:54;;;;;;;18.88;10.13;;;13.90;99.90;;;;;;5059901;28;20069;-94
2022/09/09 01:47:20;;;;;;;18.20;9.85;;;13.90;99.90;;;;;;5060035;28;20418;-94
2022/09/09 01:49:45;;;;;;;19.80;9.90;;;13.80;99.90;;;;;;5060115;28;20056;-95
2022/09/09 01:52:11;;;;;;;14.40;9.80;;;13.80;99.90;;;;;;5058604;28;20325;-95
2022/09/09 01:54:37;;;;;;;19.73;11.07;;;13.70;99.90;;;;;;5059603;28;20043;-95
2022/09/09 01:57:14;;;;;;;17.73;9.88;;;13.70;99.90;;;;;;5060045;28;20081;-95
2022/09/09 01:59:52;;;;;;;21.25;10.50;;;13.70;99.90;;;;;;5059431;28;20047;-95
2022/09/09 02:02:23;;;;;;;16.88;9.93;;;13.70;99.90;;;;;;5059715;28;20051;-95
2022/09/09 02:04:56;;;;;;;17.85;10.23;;;13.70;99.90;;;;;;5057407;28;20051;-96
2022/09/09 02:07:29;;;;;;;;;;;13.70;99.90;;;;;;5059978;28;20097;-95
2022/09/09 02:10:02;;;;;;;21.45;10.95;;;13.60;99.90;;;;;;5059156;28;20290;-95
2022/09/09 02:12:30;;;;;;;19.25;10.45;;;13.60;99.90;;;;;;5058940;28;20051;-95
2022/09/09 02:15:03;;;;;;;14.60;10.55;;;13.60;99.90;;;;;;5059437;28;20052;-94
2022/09/09 02:17:33;;;;;;;21.63;10.38;;;13.50;99.90;;;;;;5059808;28;20043;-94
2022/09/09 02:20:07;;;;;;;17.10;10.55;;;13.60;99.90;;;;;;5059207;28;20135;-94
2022/09/09 02:22:35;;;;;;;19.50;10.32;;;13.60;99.90;;;;;;5058970;28;20051;-95
2022/09/09 02:25:05;;;;;;;18.73;10.85;;;13.60;99.90;;;;;;5059257;28;20044;-95
2022/09/09 02:27:30;;;;;;;21.50;11.13;;;13.50;99.90;;;;;;5059359;28;20400;-94
2022/09/09 02:30:00;;;;;;;20.42;11.82;;;13.50;99.90;;;;;;5059078;28;20043;-94
2022/09/09 02:32:26;;;;;;;23.08;10.93;;;13.60;99.90;;;;;;5059044;28;20511;-95
2022/09/09 02:34:59;;;;;;;18.65;10.68;;;13.60;99.90;;;;;;5059328;28;20043;-94
2022/09/09 02:37:31;;;;;;;24.88;11.88;;;13.60;99.90;;;;;;5057549;28;20457;-95
2022/09/09 02:39:57;;;;;;;21.20;11.53;;;13.60;99.90;;;;;;5057350;28;20506;-95
2022/09/09 02:42:23;;;;;;;21.33;11.23;;;13.60;99.90;;;;;;5057551;28;20048;-95
2022/09/09 02:44:49;;;;;;;20.20;11.50;;;13.80;99.90;;;;;;5057884;28;20048;-94
2022/09/09 02:47:28;;;;;;;17.30;10.75;;;13.60;99.90;;;;;;5058177;28;20085;-95
2022/09/09 02:50:05;;;;;;;21.23;12.32;;;13.70;99.90;;;;;;5059191;28;20101;-96
2022/09/09 02:52:54;;;;;;;22.10;11.52;;;13.70;99.90;;;;;;5059427;28;20048;-94
2022/09/09 02:55:36;;;;;;;15.40;10.80;;;13.70;99.90;;;;;;5059121;28;20142;-94
2022/09/09 02:58:05;;;;;;;18.90;11.15;;;13.70;99.90;;;;;;5059417;28;20048;-94
2022/09/09 03:00:32;;;;;;;25.00;11.68;;;13.80;99.90;;;;;;5059086;28;20201;-95
2022/09/09 03:02:58;;;;;;;20.70;10.93;;;13.80;99.90;;;;;;5055718;28;20534;-95
2022/09/09 03:05:26;;;;;;;17.65;10.88;;;13.90;99.90;;;;;;5038950;28;20087;-95
2022/09/09 03:07:51;;;;;;;17.33;11.52;;;13.90;99.90;;;;;;5038862;28;20621;-94
2022/09/09 03:10:20;;;;;;;18.75;9.68;;;14.00;99.90;;;;;;5039299;28;20453;-94
2022/09/09 03:12:46;;;;;;;18.45;10.32;;;14.10;99.90;;;;;;5039159;28;20040;-95
2022/09/09 03:15:12;;;;;;;14.90;10.07;;;14.00;99.90;;;;;;5038673;28;20048;-95
2022/09/09 03:17:39;;;;;;;18.83;10.05;;;14.10;99.90;;;;;;5038796;28;20407;-95
2022/09/09 03:20:05;;;;;;;18.05;9.73;;;14.10;99.90;;;;;;5038748;28;20051;-95
2022/09/09 03:22:31;;;;;;;16.10;9.68;;;14.20;99.90;;;;;;5037909;28;20045;-95
2022/09/09 03:24:56;;;;;;;23.05;10.00;;;14.10;99.90;;;;;;5038755;28;20082;-94
2022/09/09 03:27:22;;;;;;;14.02;8.25;;;14.20;99.90;;;;;;5055409;28;20041;-94
2022/09/09 03:29:50;;;;;;;18.35;7.82;;;14.20;99.90;;;;;;5037309;28;20102;-95
2022/09/09 03:32:17;;;;;;;12.65;8.07;;;14.30;99.90;;;;;;5038167;28;20048;-94
2022/09/09 03:34:43;;;;;;;16.80;7.95;;;14.30;99.90;;;;;;5038051;28;20040;-94
2022/09/09 03:37:12;;;;;;;13.15;7.40;;;14.30;99.90;;;;;;5038210;28;20045;-94
2022/09/09 03:39:38;;;;;;;14.77;7.40;;;14.30;99.90;;;;;;5038117;28;20378;-94
2022/09/09 03:42:03;;;;;;;10.25;6.20;;;14.30;99.90;;;;;;5038117;28;20071;-94
2022/09/09 03:44:30;;;;;;;14.70;6.57;;;14.40;99.90;;;;;;5037718;28;20044;-94
2022/09/09 03:46:56;;;;;;;16.77;6.78;;;14.30;99.90;;;;;;5037028;28;20053;-94
2022/09/09 03:49:22;;;;;;;11.35;6.32;;;14.40;99.90;;;;;;5038216;28;20155;-94
2022/09/09 03:51:48;;;;;;;12.40;6.07;;;14.40;99.90;;;;;;5039473;28;20036;-94
2022/09/09 03:54:14;;;;;;;13.32;5.60;;;14.50;99.90;;;;;;5054448;28;20047;-94
2022/09/09 03:56:41;;;;;;;16.13;6.10;;;14.40;99.90;;;;;;5057890;28;20109;-94
2022/09/09 03:59:08;;;;;;;13.18;5.50;;;14.50;99.90;;;;;;5057816;28;20036;-94
2022/09/09 04:01:34;;;;;;;13.10;4.97;;;14.50;99.90;;;;;;5057993;28;20055;-93
2022/09/09 04:04:02;;;;;;;9.75;5.28;;;14.50;99.90;;;;;;5058303;28;20040;-96
2022/09/09 04:06:28;;;;;;;15.45;4.97;;;14.50;99.90;;;;;;5057880;28;20048;-94
2022/09/09 04:08:55;;;;;;;13.20;5.15;;;14.50;99.90;;;;;;5048928;28;20160;-94
2022/09/09 04:11:21;;;;;;;10.88;4.30;;;14.50;99.90;;;;;;5034548;28;20053;-94
2022/09/09 04:13:47;;;;;;;10.77;4.05;;;14.60;99.90;;;;;;5037865;28;20047;-94
2022/09/09 04:16:13;;;;;;;14.02;4.22;;;14.50;99.90;;;;;;5034754;28;20041;-95
2022/09/09 04:18:39;;;;;;;11.77;3.50;;;14.50;99.90;;;;;;5034643;28;20041;-95
2022/09/09 04:21:06;;;;;;;14.23;3.58;;;14.60;99.90;;;;;;5051306;28;20084;-96
2022/09/09 04:23:34;;;;;;;13.65;3.40;;;14.60;99.90;;;;;;5034271;28;20041;-95
2022/09/09 04:26:00;;;;;;;11.38;2.78;;;14.60;99.90;;;;;;5034331;28;20037;-95
2022/09/09 04:28:29;;;;;;;11.88;3.05;;;14.60;99.90;;;;;;5034241;28;20434;-95
2022/09/09 04:30:56;;;;;;;12.63;3.00;;;14.60;99.90;;;;;;5034352;28;20246;-95
2022/09/09 04:33:26;;;;;;;11.27;2.90;;;14.70;99.90;;;;;;5034515;28;20033;-95
2022/09/09 04:35:59;;;;;;;17.13;3.08;;;14.70;99.90;;;;;;5038543;28;20512;-95
2022/09/09 04:38:28;;;;;;;8.20;2.65;;;14.60;99.90;;;;;;5037515;28;20037;-95
2022/09/09 04:40:57;;;;;;;10.52;3.13;;;14.70;99.90;;;;;;5038352;28;20041;-96
2022/09/09 04:43:26;;;;;;;10.35;3.03;;;14.70;99.90;;;;;;5037733;28;20048;-96
2022/09/09 04:45:56;;;;;;;8.57;2.92;;;14.70;99.90;;;;;;5037718;28;20044;-96
2022/09/09 04:48:22;;;;;;;12.38;3.35;;;14.60;99.90;;;;;;5037965;28;20187;-95
2022/09/09 04:50:56;;;;;;;10.52;3.60;;;14.50;99.90;;;;;;5038153;28;20045;-95
2022/09/09 04:53:22;;;;;;;10.10;3.33;;;14.70;99.90;;;;;;5037764;28;20044;-95
2022/09/09 04:55:51;;;;;;;10.60;3.85;;;14.70;99.90;;;;;;5038268;28;20040;-95
2022/09/09 04:58:18;;;;;;;10.82;3.97;;;14.60;99.90;;;;;;5038098;28;20115;-95
2022/09/09 05:00:46;;;;;;;9.32;3.95;;;14.60;99.90;;;;;;5038766;28;20051;-94
2022/09/09 05:03:21;;;;;;;11.18;3.92;;;14.60;99.90;;;;;;5056319;28;20040;-95
2022/09/09 05:05:47;;;;;;;12.05;3.97;;;14.60;99.90;;;;;;5057356;28;20080;-96
2022/09/09 05:08:12;;;;;;;8.38;4.40;;;14.60;99.90;;;;;;5057697;28;20381;-95
2022/09/09 05:10:39;;;;;;;10.27;3.80;;;14.60;99.90;;;;;;5056973;28;20047;-95
2022/09/09 05:13:06;;;;;;;11.90;4.05;;;14.50;99.90;;;;;;5057210;28;20041;-95
2022/09/09 05:15:32;;;;;;;9.73;4.82;;;14.50;99.90;;;;;;5057929;28;20098;-95
2022/09/09 05:18:03;;;;;;;15.43;5.60;;;14.60;99.90;;;;;;5075855;28;20040;-96
2022/09/09 05:20:29;;;;;;;12.52;5.45;;;14.60;99.90;;;;;;5057508;28;20444;-96
2022/09/09 05:22:56;;;;;;;10.57;5.38;;;14.60;99.90;;;;;;5058364;28;20083;-96
2022/09/09 05:25:27;;;;;;;13.50;6.13;;;14.50;99.90;;;;;;5057685;28;20048;-95
2022/09/09 05:27:53;;;;;;;13.00;5.97;;;14.50;99.90;;;;;;5054827;28;20036;-95
2022/09/09 05:30:24;;;;;;;11.85;6.18;;;14.50;99.90;;;;;;5048336;28;20051;-95
2022/09/09 05:32:53;;;;;;;13.68;5.97;;;14.50;99.90;;;;;;5047004;28;20048;-94
2022/09/09 05:35:19;;;;;;;12.75;7.28;;;14.50;99.90;;;;;;5046183;28;20079;-95
2022/09/09 05:37:45;;;;;;;13.25;7.05;;;14.50;99.90;;;;;;5047205;28;20076;-94
2022/09/09 05:40:12;;;;;;;15.18;7.43;;;14.50;99.90;;;;;;5046802;28;20130;-94
2022/09/09 05:42:38;;;;;;;12.05;6.95;;;14.60;99.90;;;;;;5064248;28;20048;-95
2022/09/09 05:45:07;;;;;;;13.70;7.25;;;14.50;99.90;;;;;;5045690;28;20041;-94
2022/09/09 05:47:33;;;;;;;13.48;7.95;;;14.50;99.90;;;;;;5054881;28;20718;-93
2022/09/09 05:49:59;;;;;;;14.45;8.40;;;14.50;99.90;;;;;;5047932;28;20480;-94
2022/09/09 05:52:26;;;;;;;13.07;7.43;;;14.50;99.90;;;;;;5046328;28;20070;-95
2022/09/09 05:54:54;;;;;;;12.95;8.15;;;14.50;99.90;;;;;;5047127;28;20051;-94
2022/09/09 05:57:20;;;;;;;18.60;8.18;;;14.60;99.90;;;;;;5047713;28;20039;-94
2022/09/09 05:59:46;;;;;;;14.20;8.90;;;14.60;99.90;;;;;;5045453;28;20078;-96
2022/09/09 06:02:13;;;;;;;15.13;8.70;;;14.60;99.90;;;;;;5047542;28;20037;-94
2022/09/09 06:04:39;;;;;;;16.95;8.32;;;14.50;99.90;;;;;;5049458;28;20059;-94
2022/09/09 06:07:05;;;;;;;16.33;9.52;;;14.60;99.90;;;;;;5045513;28;20079;-94
2022/09/09 06:09:31;;;;;;;14.55;8.65;;;14.60;99.90;;;;;;5044698;28;20041;-95
2022/09/09 06:11:58;;;;;;;16.23;9.30;;;14.70;99.90;;;;;;5046649;28;20055;-94
2022/09/09 06:14:25;;;;;;;15.90;9.15;;;14.70;99.90;;;;;;5045245;28;20045;-94
2022/09/09 06:16:51;;;;;;;18.10;8.45;;;14.70;99.90;;;;;;5044177;28;20128;-95
2022/09/09 06:19:17;;;;;;;15.82;8.15;;;14.70;99.90;;;;;;5046562;28;20044;-96
2022/09/09 06:21:44;;;;;;;13.70;8.23;;;14.80;99.90;;;;;;5046904;28;20126;-95
2022/09/09 06:24:10;;;;;;;17.10;9.10;;;14.70;99.90;;;;;;5044927;28;20048;-94
2022/09/09 06:26:40;;;;;;;15.32;8.80;;;14.80;99.90;;;;;;5044186;28;20049;-95
2022/09/09 06:29:06;;;;;;;13.73;8.60;;;14.70;99.90;;;;;;5045500;28;20050;-95
2022/09/09 06:31:34;;;;;;;13.82;8.15;;;14.80;99.90;;;;;;5046855;28;20058;-95
2022/09/09 06:34:01;;;;;;;12.60;8.25;;;14.80;99.90;;;;;;5044940;28;20392;-95
2022/09/09 06:36:36;;;;;;;14.48;7.88;;;14.90;99.90;;;;;;5046213;28;20064;-96
2022/09/09 06:39:46;;;;;;;14.63;7.72;;;14.90;99.90;;;;;;5056338;28;20123;-95
2022/09/09 06:42:53;;;;;;;14.32;7.68;;;14.80;99.90;;;;;;4993385;28;20124;-95
2022/09/09 06:46:19;;;;;;;12.15;7.70;;;15.10;99.90;;;;;;5052237;28;20060;-95
2022/09/09 06:48:44;;;;;;;11.85;6.97;;;14.90;99.90;;;;;;5054575;28;20075;-96
2022/09/09 06:51:42;;;;;;;12.32;6.82;;;15.00;99.90;;;;;;5059263;28;20534;-96
2022/09/09 06:56:42;;;;;;;11.55;6.75;;;15.20;99.90;;;;;;5045400;28;20072;-86
2022/09/09 06:59:09;;;;;;;11.65;6.22;;;15.20;99.90;;;;;;5011720;28;20068;-87
2022/09/09 07:01:38;;;;;;;13.18;7.25;;;15.30;99.90;;;;;;5013817;28;20047;-89
2022/09/09 07:04:07;;;;;;;11.63;6.57;;;15.30;99.90;;;;;;5013320;28;20441;-88
2022/09/09 07:06:43;;;;;;;14.05;7.28;;;15.30;99.90;;;;;;5013133;28;20485;-89
2022/09/09 07:09:11;;;;;;;10.60;6.40;;;15.40;99.90;;;;;;5013840;28;20579;-89
2022/09/09 07:11:42;;;;;;;14.02;6.85;;;15.40;99.90;;;;;;5013611;28;20131;-88
2022/09/09 07:14:08;;;;;;;13.18;7.15;;;15.50;99.90;;;;;;5011950;28;20102;-86
2022/09/09 07:16:41;;;;;;;12.27;6.32;;;15.60;99.90;;;;;;5013444;28;20107;-87
2022/09/09 07:19:07;;;;;;;9.88;6.22;;;15.70;99.90;;;;;;5028942;28;20044;-86
2022/09/09 07:21:33;;;;;;;12.20;6.50;;;15.70;99.90;;;;;;5011942;28;20114;-86
2022/09/09 07:24:00;;;;;;;11.20;6.78;;;15.80;99.90;;;;;;5010025;28;20061;-85
2022/09/09 07:26:32;;;;;;;12.40;6.43;;;15.90;99.90;;;;;;5029089;28;20045;-85
2022/09/09 07:28:58;;;;;;;13.10;6.20;;;15.90;99.90;;;;;;5009363;28;20072;-86
2022/09/09 07:31:36;;;;;;;9.52;6.47;;;15.90;99.90;;;;;;5029169;28;20517;-86
2022/09/09 07:34:05;;;;;;;12.25;6.03;;;16.00;99.90;;;;;;5027941;28;20041;-86
2022/09/09 07:36:38;;;;;;;10.05;5.88;;;16.00;99.90;;;;;;5012552;28;20203;-86
2022/09/09 07:39:06;;;;;;;15.68;6.25;;;16.00;99.90;;;;;;5029295;28;20111;-86
2022/09/09 07:42:02;;;;;;;10.98;5.95;;;16.10;99.90;;;;;;5028587;28;20102;-85
2022/09/09 07:44:34;;;;;;;10.90;5.80;;;15.70;99.90;;;;;;4991909;28;20136;-85
2022/09/09 07:47:01;;;;;;;10.00;6.05;;;16.00;99.90;;;;;;5013547;28;20132;-86
2022/09/09 07:49:27;;;;;;;11.32;5.38;;;16.30;99.90;;;;;;5012901;28;20056;-90
2022/09/09 07:51:55;;;;;;;10.98;5.53;;;16.30;99.90;;;;;;5015887;28;20053;-90
2022/09/09 07:54:23;;;;;;;10.80;5.30;;;16.30;99.90;;;;;;5015200;28;20041;-91
2022/09/09 07:56:55;;;;;;;10.55;5.07;;;16.40;99.90;;;;;;5014719;28;20053;-90
2022/09/09 07:59:47;;;;;;;8.20;4.63;;;16.40;99.90;;;;;;5015135;28;20045;-91
2022/09/09 08:02:12;;;;;;;11.85;4.88;;;16.50;99.90;;;;;;4980873;28;20063;-91
2022/09/09 08:04:38;;;;;;;10.15;5.07;;;16.40;99.90;;;;;;5014809;28;20105;-91
2022/09/09 08:07:21;;;;;;;9.07;4.90;;;16.50;99.90;;;;;;5015484;28;20141;-91
2022/09/09 08:09:47;;;;;;;10.00;5.28;;;16.60;99.90;;;;;;5018218;28;20091;-92
2022/09/09 08:12:12;;;;;;;10.85;5.10;;;16.60;99.90;;;;;;5019571;28;20049;-91
2022/09/09 08:14:41;;;;;;;8.35;4.72;;;16.70;99.90;;;;;;5019863;28;20468;-91
2022/09/09 08:17:09;;;;;;;7.85;4.63;;;16.80;99.90;;;;;;5052223;28;20041;-90
2022/09/09 08:19:35;;;;;;;7.38;4.28;;;16.90;99.90;;;;;;5019916;28;20045;-90
2022/09/09 08:22:02;;;;;;;8.70;4.45;;;17.00;99.90;;;;;;5019844;28;20048;-90
2022/09/09 08:24:31;;;;;;;7.35;4.25;;;17.20;99.90;;;;;;5019089;28;20495;-89
2022/09/09 08:27:09;;;;;;;7.93;4.50;;;17.30;99.90;;;;;;5019537;28;20045;-91
2022/09/09 08:29:56;;;;;;;13.10;4.63;;;17.40;99.90;;;;;;5019597;28;20077;-91
2022/09/09 08:32:21;;;;;;;10.65;4.30;;;17.50;99.90;;;;;;5035094;28;20111;-90
2022/09/09 08:34:51;;;;;;;8.57;4.22;;;17.50;99.90;;;;;;5019470;28;20143;-92
2022/09/09 08:37:28;;;;;;;10.88;3.85;;;17.60;99.90;;;;;;5019438;28;20033;-91
2022/09/09 08:39:57;;;;;;;7.30;3.80;;;17.70;99.90;;;;;;5020032;28;20045;-91
2022/09/09 08:42:47;;;;;;;11.70;4.28;;;17.80;99.90;;;;;;5000453;28;20119;-91
2022/09/09 08:45:24;;;;;;;9.27;4.10;;;17.90;99.90;;;;;;5014423;28;20408;-91
2022/09/09 08:48:14;;;;;;;8.77;3.40;;;18.00;99.90;;;;;;5036332;28;20055;-91
2022/09/09 08:50:52;;;;;;;16.40;3.83;;;18.10;99.90;;;;;;5019046;28;20049;-91
2022/09/09 08:53:32;;;;;;;8.93;3.83;;;18.20;99.90;;;;;;5016951;28;20053;-91
2022/09/09 08:56:09;;;;;;;9.82;3.50;;;18.30;99.90;;;;;;5017896;28;20056;-92
2022/09/09 08:58:43;;;;;;;9.38;2.80;;;18.30;99.90;;;;;;5019971;28;20087;-91
2022/09/09 09:01:09;;;;;;;8.90;3.42;;;18.40;99.90;;;;;;5036969;28;20084;-91
2022/09/09 09:04:00;;;;;;;10.02;3.63;;;18.30;99.90;;;;;;5037009;28;20095;-88
2022/09/09 09:06:43;;;;;;;8.38;3.35;;;18.70;99.90;;;;;;5051481;28;20210;-86
2022/09/09 09:09:37;;;;;;;8.82;3.15;;;18.30;99.90;;;;;;5032932;28;20120;-85
2022/09/09 09:12:16;;;;;;;8.68;3.10;;;18.30;99.90;;;;;;5035332;28;20133;-86
2022/09/09 09:14:45;;;;;;;9.98;3.50;;;18.30;99.90;;;;;;5033192;28;20142;-87
2022/09/09 09:17:16;;;;;;;6.15;3.22;;;18.20;99.90;;;;;;5032858;28;20044;-86
2022/09/09 09:19:51;;;;;;;10.25;3.30;;;18.20;99.90;;;;;;5032921;28;20442;-86
2022/09/09 09:22:34;;;;;;;9.68;3.58;;;18.20;99.90;;;;;;5035086;28;20437;-87
2022/09/09 09:25:16;;;;;;;8.88;3.40;;;18.20;99.90;;;;;;5051995;28;20059;-88
2022/09/09 09:27:48;;;;;;;9.45;3.85;;;18.20;99.90;;;;;;5033983;28;20564;-88
2022/09/09 09:30:17;;;;;;;9.15;3.20;;;18.20;99.90;;;;;;5047134;28;20057;-88
2022/09/09 09:33:02;;;;;;;10.48;3.38;;;18.20;99.90;;;;;;5016561;28;20045;-86
2022/09/09 09:35:28;;;;;;;8.98;3.30;;;18.30;99.90;;;;;;5014440;28;20052;-86
2022/09/09 09:37:54;;;;;;;9.15;3.40;;;18.40;99.90;;;;;;5016691;28;20385;-85
2022/09/09 09:40:22;;;;;;;11.15;2.90;;;18.40;99.90;;;;;;5014376;28;20051;-84
2022/09/09 09:42:54;;;;;;;11.77;3.15;;;18.60;99.90;;;;;;5015184;28;20037;-85
2022/09/09 09:45:29;;;;;;;9.40;2.92;;;18.80;99.90;;;;;;5030914;28;20507;-85
2022/09/09 09:47:59;;;;;;;10.35;3.10;;;18.90;99.90;;;;;;5032057;28;20078;-85
2022/09/09 09:50:26;;;;;;;13.93;3.78;;;19.10;99.90;;;;;;5014721;28;20041;-86
2022/09/09 09:52:57;;;;;;;11.93;2.80;;;19.10;99.90;;;;;;5016092;28;20041;-86
2022/09/09 09:55:26;;;;;;;14.65;2.97;;;19.20;99.90;;;;;;5010894;28;20053;-86
2022/09/09 09:57:53;;;;;;;8.95;2.55;;;19.40;99.90;;;;;;5012450;28;20165;-84
2022/09/09 10:00:22;;;;;;;9.05;2.38;;;19.70;99.90;;;;;;5011703;28;20042;-86
2022/09/09 10:02:51;;;;;;;10.27;2.55;;;19.80;99.90;;;;;;5012285;28;20489;-86
2022/09/09 10:05:25;;;;;;;9.10;2.30;;;19.80;99.90;;;;;;5011735;28;20059;-85
2022/09/09 10:08:09;;;;;;;12.55;2.42;;;19.80;99.90;;;;;;5012133;28;20485;-86
2022/09/09 10:10:51;;;;;;;10.82;2.47;;;19.60;99.90;;;;;;5042227;28;20071;-87
2022/09/09 10:13:45;;;;;;;10.13;2.45;;;19.60;99.90;;;;;;5013195;28;20098;-88
2022/09/09 10:16:31;;;;;;;13.68;1.95;;;19.40;99.90;;;;;;5011977;28;20154;-90
2022/09/09 10:19:06;;;;;;;8.45;2.17;;;19.40;99.90;;;;;;5012148;28;20040;-87
2022/09/09 10:21:52;;;;;;;7.63;2.08;;;19.50;99.90;;;;;;5012619;28;20052;-88
2022/09/09 10:24:38;;;;;;;9.27;1.90;;;19.60;99.90;;;;;;5013377;28;20122;-87
2022/09/09 10:27:28;;;;;;;9.88;2.25;;;19.70;99.90;;;;;;5038913;28;20060;-87
2022/09/09 10:30:02;;;;;;;10.70;2.15;;;19.80;99.90;;;;;;5030305;28;20465;-93
2022/09/09 10:32:39;;;;;;;8.40;1.90;;;20.00;99.90;;;;;;5014574;28;20131;-88
2022/09/09 10:35:40;;;;;;;11.65;1.90;;;20.10;99.90;;;;;;5013220;28;20044;-88
2022/09/09 10:38:13;;;;;;;8.77;2.13;;;20.10;99.90;;;;;;5031102;28;20094;-87
2022/09/09 10:41:00;;;;;;;14.45;2.63;;;20.00;99.90;;;;;;5030522;28;20371;-88
2022/09/09 10:43:58;;;;;;;10.32;1.65;;;19.90;99.90;;;;;;5030028;28;20531;-88
2022/09/09 10:46:28;;;;;;;8.63;1.80;;;19.80;99.90;;;;;;5014644;28;20132;-88
2022/09/09 10:49:09;;;;;;;10.60;1.85;;;19.90;99.90;;;;;;5014079;28;20048;-87
2022/09/09 10:51:58;;;;;;;15.25;2.15;;;20.10;99.90;;;;;;5009612;28;20055;-88
2022/09/09 10:54:36;;;;;;;9.82;2.20;;;20.20;99.90;;;;;;5013749;28;20052;-88
2022/09/09 10:57:11;;;;;;;9.43;1.90;;;20.00;99.90;;;;;;5015149;28;20507;-87
2022/09/09 10:59:47;;;;;;;14.05;2.15;;;19.90;99.90;;;;;;5013923;28;20353;-87
2022/09/09 11:02:25;;;;;;;8.82;1.65;;;19.70;99.90;;;;;;5014869;28;20037;-87
2022/09/09 11:04:59;;;;;;;11.05;2.05;;;19.80;99.90;;;;;;5013947;28;20208;-87
2022/09/09 11:07:52;;;;;;;12.27;2.42;;;20.00;99.90;;;;;;5013997;28;20053;-87
2022/09/09 11:10:24;;;;;;;9.23;1.93;;;20.30;99.90;;;;;;5014633;28;20126;-88
2022/09/09 11:12:53;;;;;;;10.27;1.85;;;20.40;99.90;;;;;;5014782;28;20099;-88
2022/09/09 11:15:31;;;;;;;6.53;1.67;;;20.30;99.90;;;;;;5014249;28;20396;-88
2022/09/09 11:18:01;;;;;;;9.50;1.27;;;20.20;99.90;;;;;;5015064;28;20102;-87
2022/09/09 11:20:27;;;;;;;9.15;1.33;;;20.20;99.90;;;;;;5012870;28;20085;-87
2022/09/09 11:23:00;;;;;;;9.25;1.92;;;20.10;99.90;;;;;;5014485;28;20059;-87
2022/09/09 11:25:33;;;;;;;7.75;1.77;;;20.10;99.90;;;;;;5029735;28;20511;-87
2022/09/09 11:28:15;;;;;;;8.63;1.35;;;20.10;99.90;;;;;;5030212;28;20044;-86
2022/09/09 11:31:11;;;;;;;10.48;1.67;;;20.10;99.90;;;;;;5013679;28;20088;-86
2022/09/09 11:34:08;;;;;;;9.52;1.58;;;20.10;99.90;;;;;;5013489;28;20400;-89
2022/09/09 11:36:53;;;;;;;5.93;1.20;;;20.20;99.90;;;;;;5014103;28;20509;-87
2022/09/09 11:39:51;;;;;;;7.13;1.33;;;20.20;99.90;;;;;;5014255;28;20128;-89
2022/09/09 11:42:26;;;;;;;7.72;1.30;;;20.20;99.90;;;;;;5030616;28;20044;-88
2022/09/09 11:44:54;;;;;;;10.68;1.23;;;20.30;99.90;;;;;;5019396;28;20099;-90
2022/09/09 11:47:30;;;;;;;8.88;1.38;;;20.30;99.90;;;;;;5018464;28;20512;-89
2022/09/09 11:50:16;;;;;;;7.22;1.20;;;20.30;99.90;;;;;;5019116;28;20480;-91
2022/09/09 11:52:46;;;;;;;8.32;1.33;;;20.20;99.90;;;;;;5020507;28;20053;-91
2022/09/09 11:55:44;;;;;;;8.40;1.38;;;20.00;99.90;;;;;;5034841;28;20096;-90
2022/09/09 11:58:21;;;;;;;8.10;1.50;;;20.10;99.90;;;;;;5018279;28;20466;-90
2022/09/09 12:00:56;;;;;;;7.95;1.45;;;19.80;99.90;;;;;;5018721;28;20037;-91
2022/09/09 12:04:02;;;;;;;7.40;1.25;;;19.90;99.90;;;;;;5017658;28;20049;-90
2022/09/09 12:06:45;;;;;;;9.70;1.50;;;20.20;99.90;;;;;;5018448;28;20052;-90
2022/09/09 12:09:18;;;;;;;9.88;1.60;;;20.30;99.90;;;;;;5018030;28;20037;-90
2022/09/09 12:11:44;;;;;;;8.57;1.08;;;20.30;99.90;;;;;;5018348;28;20057;-91
2022/09/09 12:14:21;;;;;;;7.50;1.33;;;20.30;99.90;;;;;;5018440;28;20600;-91
2022/09/09 12:16:50;;;;;;;7.15;1.40;;;20.20;99.90;;;;;;5034911;28;20052;-92
2022/09/09 12:19:30;;;;;;;7.13;1.30;;;20.10;99.90;;;;;;5017368;28;20052;-91
2022/09/09 12:22:14;;;;;;;6.07;1.02;;;20.20;99.90;;;;;;5018953;28;20037;-90
2022/09/09 12:25:06;;;;;;;7.32;1.30;;;20.30;99.90;;;;;;5010189;28;20055;-91
2022/09/09 12:28:11;;;;;;;5.13;0.85;;;20.50;99.90;;;;;;5018217;28;20037;-91
2022/09/09 12:31:05;;;;;;;7.50;1.48;;;20.60;99.90;;;;;;5017255;28;20040;-90
2022/09/09 12:33:43;;;;;;;5.53;0.93;;;20.60;99.90;;;;;;5017396;28;20135;-92
2022/09/09 12:36:16;;;;;;;9.02;1.35;;;20.80;99.90;;;;;;5018110;28;20060;-91
2022/09/09 12:38:45;;;;;;;11.15;1.73;;;20.70;99.90;;;;;;5018963;28;20041;-91
2022/09/09 12:41:22;;;;;;;9.27;1.60;;;20.70;99.90;;;;;;5018727;28;20088;-91
2022/09/09 12:43:51;;;;;;;14.27;1.70;;;21.00;99.90;;;;;;5017317;28;20037;-92
2022/09/09 12:46:36;;;;;;;8.57;1.90;;;20.60;99.90;;;;;;5017609;28;20094;-91
2022/09/09 12:49:06;;;;;;;16.80;1.30;;;20.50;99.90;;;;;;5017086;28;20503;-92
2022/09/09 12:51:34;;;;;;;6.55;1.27;;;20.50;99.90;;;;;;5017256;28;20052;-92
2022/09/09 12:54:00;;;;;;;6.15;1.00;;;20.70;99.90;;;;;;5016829;28;20045;-92
2022/09/09 12:56:30;;;;;;;9.68;1.48;;;20.90;99.90;;;;;;5017078;28;20045;-92
2022/09/09 12:59:00;;;;;;;9.02;1.38;;;21.00;99.90;;;;;;5016958;28;20102;-92
2022/09/09 13:01:33;;;;;;;12.73;1.73;;;21.00;99.90;;;;;;5017450;28;20041;-92
2022/09/09 13:04:19;;;;;;;;;;;21.10;99.90;;;;;;5017456;28;20080;-92
2022/09/09 13:06:45;;;;;;;6.40;1.45;;;21.00;99.90;;;;;;5017798;28;19943;-91
2022/09/09 13:09:19;;;;;;;12.55;2.17;;;21.00;99.90;;;;;;5017321;28;20477;-93
2022/09/09 13:11:59;;;;;;;8.10;1.20;;;21.00;99.90;;;;;;5016929;28;20085;-91